sensor_id;sensor_type;location;lat;lon;timestamp;P1;durP1;ratioP1;P2;durP2;ratioP2
44048;SDS011;29717;47.028;15.470;2023-03-01T00:01:32;24.50;;;17.93;;
44048;SDS011;29717;47.028;15.470;2023-03-01T00:03:59;21.87;;;16.33;;
44048;SDS011;29717;47.028;15.470;2023-03-01T00:06:25;22.83;;;18.07;;
44048;SDS011;29717;47.028;15.470;2023-03-01T00:08:52;25.07;;;17.00;;
44048;SDS011;29717;47.028;15.470;2023-03-01T00:11:20;23.97;;;17.90;;
44048;SDS011;29717;47.028;15.470;2023-03-01T00:13:50;21.20;;;16.60;;
44048;SDS011;29717;47.028;15.470;2023-03-01T00:16:18;24.43;;;18.03;;
44048;SDS011;29717;47.028;15.470;2023-03-01T00:18:45;21.90;;;17.27;;
44048;SDS011;29717;47.028;15.470;2023-03-01T00:21:12;25.97;;;17.53;;
44048;SDS011;29717;47.028;15.470;2023-03-01T00:23:39;24.20;;;17.67;;
44048;SDS011;29717;47.028;15.470;2023-03-01T00:26:07;24.83;;;17.03;;
44048;SDS011;29717;47.028;15.470;2023-03-01T00:28:36;22.73;;;17.13;;
44048;SDS011;29717;47.028;15.470;2023-03-01T00:34:02;21.90;;;16.80;;
44048;SDS011;29717;47.028;15.470;2023-03-01T00:36:30;21.97;;;16.83;;
44048;SDS011;29717;47.028;15.470;2023-03-01T00:38:58;23.30;;;17.00;;
44048;SDS011;29717;47.028;15.470;2023-03-01T00:41:25;24.27;;;17.87;;
44048;SDS011;29717;47.028;15.470;2023-03-01T00:43:53;23.20;;;17.83;;
44048;SDS011;29717;47.028;15.470;2023-03-01T00:46:20;22.47;;;16.10;;
44048;SDS011;29717;47.028;15.470;2023-03-01T00:48:48;22.33;;;16.03;;
44048;SDS011;29717;47.028;15.470;2023-03-01T00:51:16;22.70;;;16.90;;
44048;SDS011;29717;47.028;15.470;2023-03-01T00:53:44;21.43;;;16.73;;
44048;SDS011;29717;47.028;15.470;2023-03-01T00:56:12;22.70;;;16.13;;
44048;SDS011;29717;47.028;15.470;2023-03-01T00:58:39;25.63;;;18.30;;
44048;SDS011;29717;47.028;15.470;2023-03-01T01:01:09;21.77;;;17.33;;
44048;SDS011;29717;47.028;15.470;2023-03-01T01:03:43;21.93;;;16.20;;
44048;SDS011;29717;47.028;15.470;2023-03-01T01:06:13;26.00;;;17.93;;
44048;SDS011;29717;47.028;15.470;2023-03-01T01:08:41;20.80;;;17.13;;
44048;SDS011;29717;47.028;15.470;2023-03-01T01:11:08;21.47;;;16.23;;
44048;SDS011;29717;47.028;15.470;2023-03-01T01:13:35;23.10;;;17.47;;
44048;SDS011;29717;47.028;15.470;2023-03-01T01:16:02;21.63;;;17.30;;
44048;SDS011;29717;47.028;15.470;2023-03-01T01:18:29;23.00;;;16.80;;
44048;SDS011;29717;47.028;15.470;2023-03-01T01:20:56;22.40;;;16.10;;
44048;SDS011;29717;47.028;15.470;2023-03-01T01:23:22;24.37;;;17.23;;
44048;SDS011;29717;47.028;15.470;2023-03-01T01:25:51;23.93;;;17.43;;
44048;SDS011;29717;47.028;15.470;2023-03-01T01:28:18;21.90;;;17.17;;
44048;SDS011;29717;47.028;15.470;2023-03-01T01:30:44;25.17;;;17.20;;
44048;SDS011;29717;47.028;15.470;2023-03-01T01:33:11;26.43;;;17.53;;
44048;SDS011;29717;47.028;15.470;2023-03-01T01:35:38;20.97;;;16.77;;
44048;SDS011;29717;47.028;15.470;2023-03-01T01:38:05;22.27;;;17.40;;
44048;SDS011;29717;47.028;15.470;2023-03-01T01:40:31;22.37;;;16.90;;
44048;SDS011;29717;47.028;15.470;2023-03-01T01:42:59;20.80;;;16.40;;
44048;SDS011;29717;47.028;15.470;2023-03-01T01:45:31;23.60;;;17.30;;
44048;SDS011;29717;47.028;15.470;2023-03-01T01:47:59;20.70;;;16.60;;
44048;SDS011;29717;47.028;15.470;2023-03-01T01:50:27;22.30;;;17.23;;
44048;SDS011;29717;47.028;15.470;2023-03-01T01:53:05;21.23;;;16.70;;
44048;SDS011;29717;47.028;15.470;2023-03-01T01:55:33;23.53;;;16.27;;
44048;SDS011;29717;47.028;15.470;2023-03-01T01:58:04;20.37;;;16.77;;
44048;SDS011;29717;47.028;15.470;2023-03-01T02:00:32;20.60;;;15.77;;
44048;SDS011;29717;47.028;15.470;2023-03-01T02:02:59;21.53;;;16.20;;
44048;SDS011;29717;47.028;15.470;2023-03-01T02:05:29;20.67;;;15.73;;
44048;SDS011;29717;47.028;15.470;2023-03-01T02:07:58;22.17;;;15.90;;
44048;SDS011;29717;47.028;15.470;2023-03-01T02:10:26;22.30;;;17.10;;
44048;SDS011;29717;47.028;15.470;2023-03-01T02:12:53;19.80;;;15.17;;
44048;SDS011;29717;47.028;15.470;2023-03-01T02:15:23;21.90;;;16.23;;
44048;SDS011;29717;47.028;15.470;2023-03-01T02:17:52;21.57;;;16.27;;
44048;SDS011;29717;47.028;15.470;2023-03-01T02:20:20;20.00;;;16.10;;
44048;SDS011;29717;47.028;15.470;2023-03-01T02:22:49;22.57;;;15.93;;
44048;SDS011;29717;47.028;15.470;2023-03-01T02:25:27;21.87;;;16.23;;
44048;SDS011;29717;47.028;15.470;2023-03-01T02:27:54;21.07;;;16.77;;
44048;SDS011;29717;47.028;15.470;2023-03-01T02:30:26;21.10;;;15.83;;
44048;SDS011;29717;47.028;15.470;2023-03-01T02:32:54;21.80;;;16.73;;
44048;SDS011;29717;47.028;15.470;2023-03-01T02:35:28;23.03;;;17.50;;
44048;SDS011;29717;47.028;15.470;2023-03-01T02:37:56;24.17;;;16.80;;
44048;SDS011;29717;47.028;15.470;2023-03-01T02:40:26;19.53;;;16.03;;
44048;SDS011;29717;47.028;15.470;2023-03-01T02:42:54;23.93;;;16.83;;
44048;SDS011;29717;47.028;15.470;2023-03-01T02:45:21;22.90;;;17.37;;
44048;SDS011;29717;47.028;15.470;2023-03-01T02:47:49;24.93;;;18.20;;
44048;SDS011;29717;47.028;15.470;2023-03-01T02:53:02;22.50;;;17.60;;
44048;SDS011;29717;47.028;15.470;2023-03-01T02:55:31;23.90;;;17.77;;
44048;SDS011;29717;47.028;15.470;2023-03-01T02:57:57;22.77;;;18.00;;
44048;SDS011;29717;47.028;15.470;2023-03-01T03:00:28;25.40;;;17.77;;
44048;SDS011;29717;47.028;15.470;2023-03-01T03:02:59;22.23;;;16.10;;
44048;SDS011;29717;47.028;15.470;2023-03-01T03:05:27;21.80;;;16.90;;
44048;SDS011;29717;47.028;15.470;2023-03-01T03:07:54;22.97;;;16.77;;
44048;SDS011;29717;47.028;15.470;2023-03-01T03:10:23;22.67;;;17.63;;
44048;SDS011;29717;47.028;15.470;2023-03-01T03:12:50;21.77;;;16.57;;
44048;SDS011;29717;47.028;15.470;2023-03-01T03:15:18;21.57;;;16.50;;
44048;SDS011;29717;47.028;15.470;2023-03-01T03:17:45;22.10;;;17.33;;
44048;SDS011;29717;47.028;15.470;2023-03-01T03:20:15;22.63;;;17.03;;
44048;SDS011;29717;47.028;15.470;2023-03-01T03:22:44;20.90;;;16.63;;
44048;SDS011;29717;47.028;15.470;2023-03-01T03:25:11;22.80;;;16.87;;
44048;SDS011;29717;47.028;15.470;2023-03-01T03:27:38;21.97;;;16.77;;
44048;SDS011;29717;47.028;15.470;2023-03-01T03:30:07;24.57;;;16.83;;
44048;SDS011;29717;47.028;15.470;2023-03-01T03:32:34;24.77;;;17.90;;
44048;SDS011;29717;47.028;15.470;2023-03-01T03:35:01;28.20;;;18.90;;
44048;SDS011;29717;47.028;15.470;2023-03-01T03:37:35;32.00;;;22.07;;
44048;SDS011;29717;47.028;15.470;2023-03-01T03:40:19;30.60;;;20.33;;
44048;SDS011;29717;47.028;15.470;2023-03-01T03:42:46;30.37;;;20.53;;
44048;SDS011;29717;47.028;15.470;2023-03-01T03:45:13;26.07;;;19.53;;
44048;SDS011;29717;47.028;15.470;2023-03-01T03:47:40;29.00;;;20.73;;
44048;SDS011;29717;47.028;15.470;2023-03-01T03:50:08;34.07;;;22.70;;
44048;SDS011;29717;47.028;15.470;2023-03-01T03:52:36;29.33;;;21.50;;
44048;SDS011;29717;47.028;15.470;2023-03-01T03:55:03;30.77;;;20.77;;
44048;SDS011;29717;47.028;15.470;2023-03-01T03:57:34;26.73;;;18.93;;
44048;SDS011;29717;47.028;15.470;2023-03-01T04:00:01;28.30;;;20.03;;
44048;SDS011;29717;47.028;15.470;2023-03-01T04:02:30;26.23;;;19.30;;
44048;SDS011;29717;47.028;15.470;2023-03-01T04:04:57;25.67;;;18.90;;
44048;SDS011;29717;47.028;15.470;2023-03-01T04:07:24;25.13;;;18.10;;
44048;SDS011;29717;47.028;15.470;2023-03-01T04:09:52;27.10;;;18.47;;
44048;SDS011;29717;47.028;15.470;2023-03-01T04:12:19;24.03;;;18.33;;
44048;SDS011;29717;47.028;15.470;2023-03-01T04:14:48;23.27;;;17.73;;
44048;SDS011;29717;47.028;15.470;2023-03-01T04:17:15;26.17;;;17.43;;
44048;SDS011;29717;47.028;15.470;2023-03-01T04:19:42;24.17;;;18.93;;
44048;SDS011;29717;47.028;15.470;2023-03-01T04:22:09;23.90;;;18.67;;
44048;SDS011;29717;47.028;15.470;2023-03-01T04:24:36;25.37;;;19.07;;
44048;SDS011;29717;47.028;15.470;2023-03-01T04:27:04;29.33;;;19.40;;
44048;SDS011;29717;47.028;15.470;2023-03-01T04:29:31;24.10;;;18.20;;
44048;SDS011;29717;47.028;15.470;2023-03-01T04:31:58;24.93;;;18.70;;
44048;SDS011;29717;47.028;15.470;2023-03-01T04:34:25;27.73;;;19.47;;
44048;SDS011;29717;47.028;15.470;2023-03-01T04:36:53;25.77;;;18.53;;
44048;SDS011;29717;47.028;15.470;2023-03-01T04:39:20;24.93;;;19.33;;
44048;SDS011;29717;47.028;15.470;2023-03-01T04:41:46;27.67;;;19.07;;
44048;SDS011;29717;47.028;15.470;2023-03-01T04:44:15;24.70;;;18.80;;
44048;SDS011;29717;47.028;15.470;2023-03-01T04:46:42;23.43;;;17.20;;
44048;SDS011;29717;47.028;15.470;2023-03-01T04:49:08;23.50;;;17.43;;
44048;SDS011;29717;47.028;15.470;2023-03-01T04:51:35;23.17;;;17.07;;
44048;SDS011;29717;47.028;15.470;2023-03-01T04:54:03;25.87;;;17.87;;
44048;SDS011;29717;47.028;15.470;2023-03-01T04:56:34;28.50;;;17.37;;
44048;SDS011;29717;47.028;15.470;2023-03-01T04:59:00;21.93;;;16.83;;
44048;SDS011;29717;47.028;15.470;2023-03-01T05:01:32;20.50;;;15.80;;
44048;SDS011;29717;47.028;15.470;2023-03-01T05:04:00;23.43;;;17.03;;
44048;SDS011;29717;47.028;15.470;2023-03-01T05:06:30;24.03;;;16.43;;
44048;SDS011;29717;47.028;15.470;2023-03-01T05:08:58;22.37;;;15.87;;
44048;SDS011;29717;47.028;15.470;2023-03-01T05:11:25;22.30;;;15.93;;
44048;SDS011;29717;47.028;15.470;2023-03-01T05:13:53;20.67;;;15.50;;
44048;SDS011;29717;47.028;15.470;2023-03-01T05:16:20;20.30;;;14.80;;
44048;SDS011;29717;47.028;15.470;2023-03-01T05:18:48;26.50;;;16.30;;
44048;SDS011;29717;47.028;15.470;2023-03-01T05:21:16;19.30;;;15.07;;
44048;SDS011;29717;47.028;15.470;2023-03-01T05:23:43;20.83;;;15.47;;
44048;SDS011;29717;47.028;15.470;2023-03-01T05:26:13;23.63;;;14.40;;
44048;SDS011;29717;47.028;15.470;2023-03-01T05:28:40;23.00;;;15.80;;
44048;SDS011;29717;47.028;15.470;2023-03-01T05:31:06;21.60;;;15.53;;
44048;SDS011;29717;47.028;15.470;2023-03-01T05:33:35;20.33;;;14.47;;
44048;SDS011;29717;47.028;15.470;2023-03-01T05:36:04;25.43;;;16.23;;
44048;SDS011;29717;47.028;15.470;2023-03-01T05:38:31;23.40;;;14.60;;
44048;SDS011;29717;47.028;15.470;2023-03-01T05:40:57;24.80;;;16.23;;
44048;SDS011;29717;47.028;15.470;2023-03-01T05:43:24;24.50;;;15.53;;
44048;SDS011;29717;47.028;15.470;2023-03-01T05:45:51;18.00;;;14.87;;
44048;SDS011;29717;47.028;15.470;2023-03-01T05:48:18;24.33;;;15.03;;
44048;SDS011;29717;47.028;15.470;2023-03-01T05:50:45;21.57;;;15.63;;
44048;SDS011;29717;47.028;15.470;2023-03-01T05:53:14;20.83;;;15.13;;
44048;SDS011;29717;47.028;15.470;2023-03-01T05:55:41;21.93;;;15.70;;
44048;SDS011;29717;47.028;15.470;2023-03-01T05:58:10;22.00;;;16.30;;
44048;SDS011;29717;47.028;15.470;2023-03-01T06:00:39;25.37;;;16.80;;
44048;SDS011;29717;47.028;15.470;2023-03-01T06:03:06;20.57;;;16.00;;
44048;SDS011;29717;47.028;15.470;2023-03-01T06:05:33;23.57;;;16.37;;
44048;SDS011;29717;47.028;15.470;2023-03-01T06:08:00;22.30;;;15.93;;
44048;SDS011;29717;47.028;15.470;2023-03-01T06:10:28;23.67;;;16.07;;
44048;SDS011;29717;47.028;15.470;2023-03-01T06:12:56;20.13;;;14.40;;
44048;SDS011;29717;47.028;15.470;2023-03-01T06:15:23;20.00;;;15.13;;
44048;SDS011;29717;47.028;15.470;2023-03-01T06:17:50;23.13;;;15.67;;
44048;SDS011;29717;47.028;15.470;2023-03-01T06:20:17;21.83;;;16.27;;
44048;SDS011;29717;47.028;15.470;2023-03-01T06:22:45;25.17;;;15.67;;
44048;SDS011;29717;47.028;15.470;2023-03-01T06:25:13;22.60;;;15.60;;
44048;SDS011;29717;47.028;15.470;2023-03-01T06:27:42;28.87;;;16.90;;
44048;SDS011;29717;47.028;15.470;2023-03-01T06:30:09;20.80;;;15.63;;
44048;SDS011;29717;47.028;15.470;2023-03-01T06:32:37;20.13;;;15.67;;
44048;SDS011;29717;47.028;15.470;2023-03-01T06:35:07;25.87;;;16.47;;
44048;SDS011;29717;47.028;15.470;2023-03-01T06:37:34;23.10;;;16.60;;
44048;SDS011;29717;47.028;15.470;2023-03-01T06:40:01;22.47;;;16.40;;
44048;SDS011;29717;47.028;15.470;2023-03-01T06:42:33;29.07;;;15.87;;
44048;SDS011;29717;47.028;15.470;2023-03-01T06:45:02;23.77;;;16.40;;
44048;SDS011;29717;47.028;15.470;2023-03-01T06:47:29;21.57;;;16.27;;
44048;SDS011;29717;47.028;15.470;2023-03-01T06:49:55;22.67;;;15.87;;
44048;SDS011;29717;47.028;15.470;2023-03-01T06:52:22;27.17;;;16.87;;
44048;SDS011;29717;47.028;15.470;2023-03-01T06:54:49;23.67;;;16.40;;
44048;SDS011;29717;47.028;15.470;2023-03-01T06:57:15;27.37;;;17.60;;
44048;SDS011;29717;47.028;15.470;2023-03-01T06:59:42;28.40;;;16.83;;
44048;SDS011;29717;47.028;15.470;2023-03-01T07:02:11;26.77;;;17.13;;
44048;SDS011;29717;47.028;15.470;2023-03-01T07:04:39;24.17;;;17.70;;
44048;SDS011;29717;47.028;15.470;2023-03-01T07:07:05;26.30;;;17.00;;
44048;SDS011;29717;47.028;15.470;2023-03-01T07:09:32;26.93;;;15.87;;
44048;SDS011;29717;47.028;15.470;2023-03-01T07:11:59;26.23;;;17.03;;
44048;SDS011;29717;47.028;15.470;2023-03-01T07:14:26;26.83;;;17.23;;
44048;SDS011;29717;47.028;15.470;2023-03-01T07:16:54;22.67;;;16.03;;
44048;SDS011;29717;47.028;15.470;2023-03-01T07:19:22;21.30;;;14.57;;
44048;SDS011;29717;47.028;15.470;2023-03-01T07:21:49;21.07;;;14.77;;
44048;SDS011;29717;47.028;15.470;2023-03-01T07:24:15;22.07;;;14.23;;
44048;SDS011;29717;47.028;15.470;2023-03-01T07:26:42;23.50;;;15.97;;
44048;SDS011;29717;47.028;15.470;2023-03-01T07:29:09;22.77;;;15.27;;
44048;SDS011;29717;47.028;15.470;2023-03-01T07:31:36;22.27;;;15.47;;
44048;SDS011;29717;47.028;15.470;2023-03-01T07:34:03;22.73;;;15.60;;
44048;SDS011;29717;47.028;15.470;2023-03-01T07:36:31;23.23;;;15.43;;
44048;SDS011;29717;47.028;15.470;2023-03-01T07:38:58;20.87;;;16.07;;
44048;SDS011;29717;47.028;15.470;2023-03-01T07:41:27;24.63;;;17.03;;
44048;SDS011;29717;47.028;15.470;2023-03-01T07:43:54;25.97;;;16.13;;
44048;SDS011;29717;47.028;15.470;2023-03-01T07:46:21;26.77;;;17.30;;
44048;SDS011;29717;47.028;15.470;2023-03-01T07:48:48;28.20;;;16.77;;
44048;SDS011;29717;47.028;15.470;2023-03-01T07:51:15;27.80;;;17.40;;
44048;SDS011;29717;47.028;15.470;2023-03-01T07:53:44;23.77;;;17.17;;
44048;SDS011;29717;47.028;15.470;2023-03-01T07:56:12;22.23;;;17.27;;
44048;SDS011;29717;47.028;15.470;2023-03-01T07:58:40;31.13;;;17.70;;
44048;SDS011;29717;47.028;15.470;2023-03-01T08:01:08;24.93;;;16.03;;
44048;SDS011;29717;47.028;15.470;2023-03-01T08:03:35;19.57;;;15.20;;
44048;SDS011;29717;47.028;15.470;2023-03-01T08:06:03;21.00;;;14.77;;
44048;SDS011;29717;47.028;15.470;2023-03-01T08:08:31;26.80;;;14.20;;
44048;SDS011;29717;47.028;15.470;2023-03-01T08:11:00;20.50;;;14.27;;
44048;SDS011;29717;47.028;15.470;2023-03-01T08:13:27;18.77;;;14.37;;
44048;SDS011;29717;47.028;15.470;2023-03-01T08:15:53;18.10;;;14.23;;
44048;SDS011;29717;47.028;15.470;2023-03-01T08:18:20;18.33;;;13.77;;
44048;SDS011;29717;47.028;15.470;2023-03-01T08:20:47;20.47;;;14.30;;
44048;SDS011;29717;47.028;15.470;2023-03-01T08:23:14;19.63;;;15.03;;
44048;SDS011;29717;47.028;15.470;2023-03-01T08:25:41;19.60;;;14.63;;
44048;SDS011;29717;47.028;15.470;2023-03-01T08:28:09;18.90;;;13.77;;
44048;SDS011;29717;47.028;15.470;2023-03-01T08:30:36;19.07;;;14.97;;
44048;SDS011;29717;47.028;15.470;2023-03-01T08:33:02;27.20;;;14.77;;
44048;SDS011;29717;47.028;15.470;2023-03-01T08:35:29;18.00;;;14.77;;
44048;SDS011;29717;47.028;15.470;2023-03-01T08:37:56;23.57;;;14.83;;
44048;SDS011;29717;47.028;15.470;2023-03-01T08:40:23;20.60;;;14.63;;
44048;SDS011;29717;47.028;15.470;2023-03-01T08:42:49;18.67;;;13.87;;
44048;SDS011;29717;47.028;15.470;2023-03-01T08:45:17;18.97;;;14.77;;
44048;SDS011;29717;47.028;15.470;2023-03-01T08:47:44;20.93;;;15.13;;
44048;SDS011;29717;47.028;15.470;2023-03-01T08:50:11;21.10;;;14.37;;
44048;SDS011;29717;47.028;15.470;2023-03-01T08:52:38;18.30;;;13.50;;
44048;SDS011;29717;47.028;15.470;2023-03-01T08:55:05;17.63;;;14.43;;
44048;SDS011;29717;47.028;15.470;2023-03-01T08:57:33;18.47;;;14.27;;
44048;SDS011;29717;47.028;15.470;2023-03-01T09:00:00;19.63;;;14.50;;
44048;SDS011;29717;47.028;15.470;2023-03-01T09:02:28;18.57;;;14.20;;
44048;SDS011;29717;47.028;15.470;2023-03-01T09:04:55;18.13;;;14.63;;
44048;SDS011;29717;47.028;15.470;2023-03-01T09:07:21;16.20;;;13.23;;
44048;SDS011;29717;47.028;15.470;2023-03-01T09:09:53;19.27;;;14.60;;
44048;SDS011;29717;47.028;15.470;2023-03-01T09:12:20;21.07;;;14.80;;
44048;SDS011;29717;47.028;15.470;2023-03-01T09:14:47;28.87;;;15.87;;
44048;SDS011;29717;47.028;15.470;2023-03-01T09:17:14;21.97;;;15.67;;
44048;SDS011;29717;47.028;15.470;2023-03-01T09:19:42;23.70;;;15.23;;
44048;SDS011;29717;47.028;15.470;2023-03-01T09:22:09;19.03;;;14.50;;
44048;SDS011;29717;47.028;15.470;2023-03-01T09:24:36;22.20;;;14.93;;
44048;SDS011;29717;47.028;15.470;2023-03-01T09:27:04;21.40;;;15.00;;
44048;SDS011;29717;47.028;15.470;2023-03-01T09:29:34;20.20;;;15.37;;
44048;SDS011;29717;47.028;15.470;2023-03-01T09:32:01;23.67;;;16.53;;
44048;SDS011;29717;47.028;15.470;2023-03-01T09:34:28;19.53;;;15.60;;
44048;SDS011;29717;47.028;15.470;2023-03-01T09:36:58;22.63;;;16.80;;
44048;SDS011;29717;47.028;15.470;2023-03-01T09:39:25;19.47;;;15.73;;
44048;SDS011;29717;47.028;15.470;2023-03-01T09:41:54;24.87;;;15.67;;
44048;SDS011;29717;47.028;15.470;2023-03-01T09:44:27;21.83;;;16.47;;
44048;SDS011;29717;47.028;15.470;2023-03-01T09:46:56;25.93;;;15.80;;
44048;SDS011;29717;47.028;15.470;2023-03-01T09:49:25;23.17;;;16.60;;
44048;SDS011;29717;47.028;15.470;2023-03-01T09:52:00;26.03;;;16.67;;
44048;SDS011;29717;47.028;15.470;2023-03-01T09:54:27;19.47;;;15.87;;
44048;SDS011;29717;47.028;15.470;2023-03-01T09:59:39;21.87;;;15.93;;
44048;SDS011;29717;47.028;15.470;2023-03-01T10:02:14;22.27;;;15.33;;
44048;SDS011;29717;47.028;15.470;2023-03-01T10:04:45;25.63;;;16.20;;
44048;SDS011;29717;47.028;15.470;2023-03-01T10:07:17;21.60;;;16.37;;
44048;SDS011;29717;47.028;15.470;2023-03-01T10:09:48;23.37;;;15.83;;
44048;SDS011;29717;47.028;15.470;2023-03-01T10:12:15;22.53;;;15.93;;
44048;SDS011;29717;47.028;15.470;2023-03-01T10:14:43;21.47;;;16.53;;
44048;SDS011;29717;47.028;15.470;2023-03-01T10:17:17;27.20;;;17.60;;
44048;SDS011;29717;47.028;15.470;2023-03-01T10:19:47;24.67;;;16.23;;
44048;SDS011;29717;47.028;15.470;2023-03-01T10:22:15;25.30;;;17.13;;
44048;SDS011;29717;47.028;15.470;2023-03-01T10:24:44;24.50;;;17.07;;
44048;SDS011;29717;47.028;15.470;2023-03-01T10:27:13;23.17;;;16.53;;
44048;SDS011;29717;47.028;15.470;2023-03-01T10:29:45;24.70;;;16.70;;
44048;SDS011;29717;47.028;15.470;2023-03-01T10:32:12;21.50;;;16.57;;
44048;SDS011;29717;47.028;15.470;2023-03-01T10:34:39;26.50;;;17.63;;
44048;SDS011;29717;47.028;15.470;2023-03-01T10:37:10;23.37;;;16.97;;
44048;SDS011;29717;47.028;15.470;2023-03-01T10:39:37;23.97;;;17.30;;
44048;SDS011;29717;47.028;15.470;2023-03-01T10:42:22;24.47;;;17.03;;
44048;SDS011;29717;47.028;15.470;2023-03-01T10:44:51;24.60;;;17.67;;
44048;SDS011;29717;47.028;15.470;2023-03-01T10:47:19;25.30;;;17.97;;
44048;SDS011;29717;47.028;15.470;2023-03-01T10:49:54;22.93;;;16.80;;
44048;SDS011;29717;47.028;15.470;2023-03-01T10:52:21;24.00;;;17.43;;
44048;SDS011;29717;47.028;15.470;2023-03-01T10:54:52;23.17;;;17.27;;
44048;SDS011;29717;47.028;15.470;2023-03-01T11:00:24;26.37;;;17.27;;
44048;SDS011;29717;47.028;15.470;2023-03-01T11:03:02;24.90;;;17.60;;
44048;SDS011;29717;47.028;15.470;2023-03-01T11:05:29;24.00;;;17.40;;
44048;SDS011;29717;47.028;15.470;2023-03-01T11:07:59;24.37;;;17.97;;
44048;SDS011;29717;47.028;15.470;2023-03-01T11:10:27;23.77;;;17.97;;
44048;SDS011;29717;47.028;15.470;2023-03-01T11:13:05;23.37;;;17.67;;
44048;SDS011;29717;47.028;15.470;2023-03-01T11:15:35;24.40;;;18.00;;
44048;SDS011;29717;47.028;15.470;2023-03-01T11:18:03;23.47;;;17.80;;
44048;SDS011;29717;47.028;15.470;2023-03-01T11:20:31;28.40;;;19.00;;
44048;SDS011;29717;47.028;15.470;2023-03-01T11:23:00;33.13;;;21.77;;
44048;SDS011;29717;47.028;15.470;2023-03-01T11:25:29;46.10;;;31.37;;
44048;SDS011;29717;47.028;15.470;2023-03-01T11:27:57;81.67;;;52.27;;
44048;SDS011;29717;47.028;15.470;2023-03-01T11:30:26;67.67;;;45.83;;
44048;SDS011;29717;47.028;15.470;2023-03-01T11:33:01;26.83;;;18.93;;
44048;SDS011;29717;47.028;15.470;2023-03-01T11:35:29;26.20;;;17.73;;
44048;SDS011;29717;47.028;15.470;2023-03-01T11:38:01;24.17;;;17.23;;
44048;SDS011;29717;47.028;15.470;2023-03-01T11:40:31;24.73;;;17.67;;
44048;SDS011;29717;47.028;15.470;2023-03-01T11:43:02;30.97;;;18.20;;
44048;SDS011;29717;47.028;15.470;2023-03-01T11:45:34;25.40;;;18.17;;
44048;SDS011;29717;47.028;15.470;2023-03-01T11:48:10;24.37;;;17.37;;
44048;SDS011;29717;47.028;15.470;2023-03-01T11:50:41;25.60;;;18.03;;
44048;SDS011;29717;47.028;15.470;2023-03-01T11:53:24;21.63;;;17.33;;
44048;SDS011;29717;47.028;15.470;2023-03-01T11:55:57;24.27;;;17.23;;
44048;SDS011;29717;47.028;15.470;2023-03-01T11:58:29;27.10;;;18.00;;
44048;SDS011;29717;47.028;15.470;2023-03-01T12:03:50;26.57;;;19.70;;
44048;SDS011;29717;47.028;15.470;2023-03-01T12:06:27;27.17;;;17.87;;
44048;SDS011;29717;47.028;15.470;2023-03-01T12:08:59;26.20;;;18.33;;
44048;SDS011;29717;47.028;15.470;2023-03-01T12:11:32;23.10;;;17.60;;
44048;SDS011;29717;47.028;15.470;2023-03-01T12:14:10;23.43;;;17.07;;
44048;SDS011;29717;47.028;15.470;2023-03-01T12:16:49;23.13;;;17.50;;
44048;SDS011;29717;47.028;15.470;2023-03-01T12:19:36;19.93;;;16.07;;
44048;SDS011;29717;47.028;15.470;2023-03-01T12:22:11;24.23;;;18.17;;
44048;SDS011;29717;47.028;15.470;2023-03-01T12:24:47;25.73;;;17.90;;
44048;SDS011;29717;47.028;15.470;2023-03-01T12:27:21;23.67;;;16.80;;
44048;SDS011;29717;47.028;15.470;2023-03-01T12:29:54;23.00;;;17.20;;
44048;SDS011;29717;47.028;15.470;2023-03-01T12:32:32;25.27;;;16.63;;
44048;SDS011;29717;47.028;15.470;2023-03-01T12:35:19;24.70;;;16.43;;
44048;SDS011;29717;47.028;15.470;2023-03-01T12:37:53;22.43;;;16.63;;
44048;SDS011;29717;47.028;15.470;2023-03-01T12:43:16;21.27;;;16.90;;
44048;SDS011;29717;47.028;15.470;2023-03-01T12:45:47;24.88;;;17.45;;
44048;SDS011;29717;47.028;15.470;2023-03-01T12:48:20;22.70;;;15.67;;
44048;SDS011;29717;47.028;15.470;2023-03-01T12:50:52;24.00;;;16.23;;
44048;SDS011;29717;47.028;15.470;2023-03-01T12:53:22;26.73;;;17.60;;
44048;SDS011;29717;47.028;15.470;2023-03-01T12:55:55;24.57;;;16.50;;
44048;SDS011;29717;47.028;15.470;2023-03-01T12:58:24;20.80;;;16.13;;
44048;SDS011;29717;47.028;15.470;2023-03-01T13:00:55;21.23;;;16.00;;
44048;SDS011;29717;47.028;15.470;2023-03-01T13:03:28;22.70;;;17.23;;
44048;SDS011;29717;47.028;15.470;2023-03-01T13:06:04;25.13;;;16.57;;
44048;SDS011;29717;47.028;15.470;2023-03-01T13:08:36;24.07;;;15.97;;
44048;SDS011;29717;47.028;15.470;2023-03-01T13:11:11;22.33;;;15.93;;
44048;SDS011;29717;47.028;15.470;2023-03-01T13:13:41;20.27;;;15.33;;
44048;SDS011;29717;47.028;15.470;2023-03-01T13:16:20;23.47;;;16.90;;
44048;SDS011;29717;47.028;15.470;2023-03-01T13:18:49;19.97;;;15.67;;
44048;SDS011;29717;47.028;15.470;2023-03-01T13:21:29;20.50;;;15.20;;
44048;SDS011;29717;47.028;15.470;2023-03-01T13:23:57;18.10;;;14.57;;
44048;SDS011;29717;47.028;15.470;2023-03-01T13:26:24;21.73;;;15.37;;
44048;SDS011;29717;47.028;15.470;2023-03-01T13:28:54;21.20;;;15.77;;
44048;SDS011;29717;47.028;15.470;2023-03-01T13:34:10;22.87;;;15.87;;
44048;SDS011;29717;47.028;15.470;2023-03-01T13:37:10;18.43;;;14.73;;
44048;SDS011;29717;47.028;15.470;2023-03-01T13:39:39;20.40;;;15.10;;
44048;SDS011;29717;47.028;15.470;2023-03-01T13:44:48;23.10;;;14.73;;
44048;SDS011;29717;47.028;15.470;2023-03-01T13:47:16;20.47;;;15.43;;
44048;SDS011;29717;47.028;15.470;2023-03-01T13:49:45;19.63;;;15.63;;
44048;SDS011;29717;47.028;15.470;2023-03-01T13:52:27;19.87;;;15.57;;
44048;SDS011;29717;47.028;15.470;2023-03-01T13:54:56;24.43;;;14.67;;
44048;SDS011;29717;47.028;15.470;2023-03-01T13:57:24;17.90;;;15.23;;
44048;SDS011;29717;47.028;15.470;2023-03-01T13:59:53;22.07;;;15.20;;
44048;SDS011;29717;47.028;15.470;2023-03-01T14:02:19;20.17;;;14.07;;
44048;SDS011;29717;47.028;15.470;2023-03-01T14:04:55;18.57;;;14.97;;
44048;SDS011;29717;47.028;15.470;2023-03-01T14:07:22;22.40;;;15.33;;
44048;SDS011;29717;47.028;15.470;2023-03-01T14:09:52;20.43;;;15.10;;
44048;SDS011;29717;47.028;15.470;2023-03-01T14:12:24;22.17;;;15.27;;
44048;SDS011;29717;47.028;15.470;2023-03-01T14:14:54;19.63;;;14.90;;
44048;SDS011;29717;47.028;15.470;2023-03-01T14:17:35;19.13;;;15.27;;
44048;SDS011;29717;47.028;15.470;2023-03-01T14:20:09;22.50;;;15.83;;
44048;SDS011;29717;47.028;15.470;2023-03-01T14:22:38;19.13;;;14.00;;
44048;SDS011;29717;47.028;15.470;2023-03-01T14:25:16;22.20;;;13.93;;
44048;SDS011;29717;47.028;15.470;2023-03-01T14:27:44;18.93;;;14.27;;
44048;SDS011;29717;47.028;15.470;2023-03-01T14:30:12;25.57;;;15.53;;
44048;SDS011;29717;47.028;15.470;2023-03-01T14:32:39;18.40;;;14.40;;
44048;SDS011;29717;47.028;15.470;2023-03-01T14:35:18;20.23;;;16.10;;
44048;SDS011;29717;47.028;15.470;2023-03-01T14:37:45;18.87;;;13.43;;
44048;SDS011;29717;47.028;15.470;2023-03-01T14:40:21;18.57;;;14.60;;
44048;SDS011;29717;47.028;15.470;2023-03-01T14:42:49;20.13;;;14.43;;